createdAt,value
2018-06-01T00:00:30.537Z,26.98
2018-06-01T00:01:30.632Z,26.98
2018-06-01T00:02:30.653Z,26.94
2018-06-01T00:03:30.690Z,26.94
2018-06-01T00:04:31.030Z,26.94
2018-06-01T00:05:30.715Z,26.91
2018-06-01T00:06:30.757Z,26.87
2018-06-01T00:07:30.829Z,26.86
2018-06-01T00:08:30.812Z,26.88
2018-06-01T00:09:30.846Z,26.90
2018-06-01T00:10:30.879Z,26.84
2018-06-01T00:11:31.268Z,26.93
2018-06-01T00:12:31.007Z,26.87
2018-06-01T00:13:31.048Z,26.81
2018-06-01T00:14:31.096Z,26.69
2018-06-01T00:15:31.061Z,26.60
2018-06-01T00:16:31.090Z,26.65
2018-06-01T00:17:31.127Z,26.64
2018-06-01T00:18:31.510Z,26.65
2018-06-01T00:19:31.189Z,26.60
2018-06-01T00:20:31.281Z,26.69
2018-06-01T00:21:31.262Z,26.64
2018-06-01T00:22:31.342Z,26.64
2018-06-01T00:23:31.380Z,26.69
2018-06-01T00:24:31.417Z,26.60
2018-06-01T00:25:31.751Z,26.65
2018-06-01T00:26:31.432Z,26.69
2018-06-01T00:27:31.616Z,26.64
2018-06-01T00:28:31.552Z,26.68
2018-06-01T00:29:31.598Z,26.75
2018-06-01T00:30:31.618Z,26.64
2018-06-01T00:31:31.608Z,26.72
2018-06-01T00:32:31.992Z,26.66
2018-06-01T00:33:31.725Z,26.50
2018-06-01T00:34:31.711Z,26.60
2018-06-01T00:35:31.747Z,26.56
2018-06-01T00:36:31.777Z,26.61
2018-06-01T00:37:31.813Z,26.64
2018-06-01T00:38:31.905Z,26.64
2018-06-01T00:39:32.235Z,26.65
2018-06-01T00:40:31.963Z,26.68
2018-06-01T00:41:32.010Z,26.57
2018-06-01T00:42:31.987Z,26.64
2018-06-01T00:43:32.022Z,26.59
2018-06-01T00:44:32.057Z,26.66
2018-06-01T00:45:32.438Z,26.66
2018-06-01T00:46:32.171Z,26.60
2018-06-01T00:47:32.154Z,26.65
2018-06-01T00:48:32.186Z,26.64
2018-06-01T00:49:32.276Z,26.71
2018-06-01T00:50:32.310Z,26.71
2018-06-01T00:51:32.641Z,26.75
2018-06-01T00:52:32.381Z,26.73
2018-06-01T00:53:32.364Z,26.73
2018-06-01T00:54:32.403Z,26.75
2018-06-01T00:55:32.431Z,26.69
2018-06-01T00:56:32.467Z,26.73
2018-06-01T00:57:32.861Z,26.87
2018-06-01T00:58:32.539Z,26.81
2018-06-01T00:59:32.574Z,26.81
2018-06-01T01:00:32.653Z,26.79
2018-06-01T01:01:32.635Z,26.79
2018-06-01T01:02:32.670Z,26.79
2018-06-01T01:03:33.056Z,26.73
2018-06-01T01:04:32.740Z,26.73
2018-06-01T01:05:32.775Z,26.69
2018-06-01T01:06:32.815Z,26.72
2018-06-01T01:07:32.849Z,26.61
2018-06-01T01:08:32.927Z,26.66
2018-06-01T01:09:33.264Z,26.61
2018-06-01T01:10:32.948Z,26.57
2018-06-01T01:11:33.031Z,26.64
2018-06-01T01:12:33.022Z,26.59
2018-06-01T01:13:33.054Z,26.61
2018-06-01T01:14:33.132Z,26.61
2018-06-01T01:15:33.467Z,26.64
2018-06-01T01:16:33.150Z,26.46
2018-06-01T01:17:33.235Z,26.54
2018-06-01T01:18:33.273Z,26.54
2018-06-01T01:19:33.252Z,26.53
2018-06-01T01:20:33.293Z,26.44
2018-06-01T01:21:33.671Z,26.47
2018-06-01T01:22:33.356Z,26.47
2018-06-01T01:23:33.441Z,26.41
2018-06-01T01:24:33.430Z,26.31
2018-06-01T01:25:33.511Z,26.35
2018-06-01T01:26:33.491Z,26.29
2018-06-01T01:27:33.886Z,26.20
2018-06-01T01:28:33.563Z,26.19
2018-06-01T01:29:33.596Z,26.19
2018-06-01T01:30:33.736Z,26.19
2018-06-01T01:31:33.673Z,26.09
2018-06-01T01:32:33.729Z,26.16
2018-06-01T01:33:34.090Z,26.13
2018-06-01T01:34:33.771Z,26.27
2018-06-01T01:35:33.889Z,26.12
2018-06-01T01:36:33.887Z,26.12
2018-06-01T01:37:33.920Z,26.16
2018-06-01T01:38:33.901Z,26.11
2018-06-01T01:39:34.287Z,26.01
2018-06-01T01:40:34.034Z,26.00
2018-06-01T01:41:34.105Z,26.03
2018-06-01T01:42:34.039Z,26.06
2018-06-01T01:43:34.096Z,26.09
2018-06-01T01:44:34.107Z,26.06
2018-06-01T01:45:34.492Z,26.06
2018-06-01T01:46:34.183Z,26.01
2018-06-01T01:47:34.206Z,26.01
2018-06-01T01:48:34.258Z,26.03
2018-06-01T01:49:34.279Z,26.03
2018-06-01T01:50:34.323Z,26.01
2018-06-01T01:51:34.701Z,25.93
2018-06-01T01:52:34.381Z,26.00
2018-06-01T01:53:34.464Z,26.03
2018-06-01T01:54:34.498Z,26.01
2018-06-01T01:55:34.484Z,26.04
2018-06-01T01:56:34.868Z,26.08
2018-06-01T01:57:34.927Z,26.04
2018-06-01T01:58:34.603Z,26.12
2018-06-01T01:59:34.616Z,26.13
2018-06-01T02:00:34.664Z,26.04
2018-06-01T02:01:34.694Z,26.11
2018-06-01T02:02:34.772Z,26.04
2018-06-01T02:03:34.801Z,26.00
2018-06-01T02:04:35.139Z,26.13
2018-06-01T02:05:34.873Z,26.08
2018-06-01T02:06:35.108Z,26.12
2018-06-01T02:07:34.939Z,26.08
2018-06-01T02:08:34.973Z,26.11
2018-06-01T02:09:34.965Z,26.17
2018-06-01T02:10:34.991Z,26.21
2018-06-01T02:11:35.375Z,26.24
2018-06-01T02:12:35.075Z,26.17
2018-06-01T02:13:35.156Z,26.21
2018-06-01T02:14:35.133Z,26.16
2018-06-01T02:15:35.309Z,26.12
2018-06-01T02:16:35.253Z,26.08
2018-06-01T02:17:35.284Z,26.11
2018-06-01T02:18:35.617Z,26.09
2018-06-01T02:19:35.300Z,26.09
2018-06-01T02:20:35.331Z,26.21
2018-06-01T02:21:35.379Z,26.11
2018-06-01T02:22:35.402Z,26.19
2018-06-01T02:23:35.432Z,26.20
2018-06-01T02:24:35.518Z,26.16
2018-06-01T02:25:35.864Z,26.17
2018-06-01T02:26:35.533Z,26.21
2018-06-01T02:27:35.573Z,26.09
2018-06-01T02:28:35.602Z,26.17
2018-06-01T02:29:35.640Z,26.21
2018-06-01T02:30:35.741Z,26.09
2018-06-01T02:31:35.756Z,26.11
2018-06-01T02:32:36.146Z,26.08
2018-06-01T02:33:35.788Z,26.08
2018-06-01T02:34:35.884Z,26.01
2018-06-01T02:35:35.867Z,26.04
2018-06-01T02:36:35.885Z,25.98
2018-06-01T02:37:35.966Z,26.06
2018-06-01T02:38:35.996Z,26.00
2018-06-01T02:39:36.332Z,25.91
2018-06-01T02:40:36.061Z,26.06
2018-06-01T02:41:36.048Z,26.00
2018-06-01T02:42:36.080Z,25.93
2018-06-01T02:43:36.112Z,25.93
2018-06-01T02:44:36.148Z,25.83
2018-06-01T02:45:36.233Z,25.85
2018-06-01T02:46:36.600Z,25.82
2018-06-01T02:47:36.308Z,25.85
2018-06-01T02:48:36.333Z,25.76
2018-06-01T02:49:36.317Z,25.69
2018-06-01T02:50:36.406Z,25.71
2018-06-01T02:51:36.436Z,25.69
2018-06-01T02:52:36.420Z,25.71
2018-06-01T02:53:36.801Z,25.74
2018-06-01T02:54:36.489Z,25.71
2018-06-01T02:55:36.532Z,25.69
2018-06-01T02:56:36.554Z,25.69
2018-06-01T02:57:36.592Z,25.67
2018-06-01T02:58:36.622Z,25.61
2018-06-01T02:59:36.659Z,25.66
2018-06-01T03:00:37.102Z,25.79
2018-06-01T03:01:36.725Z,25.82
2018-06-01T03:02:36.810Z,25.79
2018-06-01T03:03:36.841Z,25.85
2018-06-01T03:04:36.907Z,25.79
2018-06-01T03:05:36.862Z,25.76
2018-06-01T03:06:36.952Z,25.75
2018-06-01T03:07:37.342Z,25.74
2018-06-01T03:08:37.069Z,25.86
2018-06-01T03:09:37.054Z,25.72
2018-06-01T03:10:37.029Z,25.75
2018-06-01T03:11:37.110Z,25.79
2018-06-01T03:12:37.156Z,25.72
2018-06-01T03:13:37.226Z,25.81
2018-06-01T03:14:37.547Z,25.76
2018-06-01T03:15:37.277Z,25.83
2018-06-01T03:16:37.302Z,25.81
2018-06-01T03:17:37.325Z,25.82
2018-06-01T03:18:37.299Z,25.75
2018-06-01T03:19:37.538Z,25.71
2018-06-01T03:20:37.382Z,25.74
2018-06-01T03:21:37.775Z,25.74
2018-06-01T03:22:37.491Z,25.66
2018-06-01T03:23:37.756Z,25.74
2018-06-01T03:24:37.502Z,25.69
2018-06-01T03:25:37.589Z,25.75
2018-06-01T03:26:37.599Z,25.74
2018-06-01T03:27:37.980Z,25.66
2018-06-01T03:28:37.638Z,25.69
2018-06-01T03:29:37.675Z,25.69
2018-06-01T03:30:37.753Z,25.71
2018-06-01T03:31:37.821Z,25.69
2018-06-01T03:32:37.789Z,25.72
2018-06-01T03:33:38.156Z,25.75
2018-06-01T03:34:37.838Z,25.67
2018-06-01T03:35:37.925Z,25.74
2018-06-01T03:36:37.907Z,25.78
2018-06-01T03:37:37.942Z,25.64
2018-06-01T03:38:37.975Z,25.64
2018-06-01T03:39:38.445Z,25.71
2018-06-01T03:40:38.042Z,25.79
2018-06-01T03:41:38.136Z,25.82
2018-06-01T03:42:38.161Z,25.79
2018-06-01T03:43:38.198Z,25.96
2018-06-01T03:44:38.218Z,26.03
2018-06-01T03:45:38.509Z,25.93
2018-06-01T03:46:38.322Z,26.09
2018-06-01T03:47:38.284Z,26.21
2018-06-01T03:48:38.311Z,26.21
2018-06-01T03:49:38.597Z,26.27
2018-06-01T03:50:38.428Z,26.31
2018-06-01T03:51:38.762Z,26.28
2018-06-01T03:52:38.495Z,26.24
2018-06-01T03:53:38.518Z,26.36
2018-06-01T03:54:38.587Z,26.38
2018-06-01T03:55:38.547Z,26.39
2018-06-01T03:56:38.633Z,26.47
2018-06-01T03:57:38.916Z,26.50
2018-06-01T03:58:38.657Z,26.53
2018-06-01T03:59:38.763Z,26.57
2018-06-01T04:00:38.719Z,26.59
2018-06-01T04:01:38.765Z,26.60
2018-06-01T04:02:38.791Z,26.56
2018-06-01T04:03:39.191Z,26.64
2018-06-01T04:04:38.858Z,26.64
2018-06-01T04:05:38.982Z,26.68
2018-06-01T04:06:39.005Z,26.72
2018-06-01T04:07:38.965Z,26.75
2018-06-01T04:08:39.069Z,26.78
2018-06-01T04:09:39.397Z,26.83
2018-06-01T04:10:39.070Z,26.73
2018-06-01T04:11:39.105Z,26.84
2018-06-01T04:12:39.178Z,26.86
2018-06-01T04:13:39.169Z,26.84
2018-06-01T04:14:39.256Z,26.81
2018-06-01T04:15:39.590Z,26.90
2018-06-01T04:16:39.272Z,26.84
2018-06-01T04:17:39.359Z,26.93
2018-06-01T04:18:39.339Z,26.94
2018-06-01T04:19:39.373Z,26.87
2018-06-01T04:20:39.412Z,26.88
2018-06-01T04:21:39.793Z,26.91
2018-06-01T04:22:39.476Z,26.90
2018-06-01T04:23:39.509Z,26.98
2018-06-01T04:24:39.544Z,26.97
2018-06-01T04:25:39.638Z,26.94
2018-06-01T04:26:39.616Z,26.97
2018-06-01T04:27:40.001Z,27.01
2018-06-01T04:28:39.733Z,27.03
2018-06-01T04:29:39.720Z,27.02
2018-06-01T04:30:39.767Z,26.97
2018-06-01T04:31:39.849Z,26.96
2018-06-01T04:32:39.871Z,26.94
2018-06-01T04:33:40.218Z,27.01
2018-06-01T04:34:39.888Z,26.97
2018-06-01T04:35:40.005Z,27.03
2018-06-01T04:36:40.030Z,26.97
2018-06-01T04:37:39.999Z,27.05
2018-06-01T04:38:40.025Z,26.98
2018-06-01T04:39:40.412Z,27.05
2018-06-01T04:40:40.112Z,27.03
2018-06-01T04:41:40.138Z,27.06
2018-06-01T04:42:40.164Z,27.11
2018-06-01T04:43:40.311Z,27.06
2018-06-01T04:44:40.233Z,27.11
2018-06-01T04:45:40.387Z,27.13
2018-06-01T04:46:40.683Z,27.08
2018-06-01T04:47:40.336Z,27.12
2018-06-01T04:48:40.421Z,27.08
2018-06-01T04:49:40.413Z,27.02
2018-06-01T04:50:40.543Z,27.05
2018-06-01T04:51:40.576Z,27.12
2018-06-01T04:52:40.520Z,27.11
2018-06-01T04:53:40.848Z,27.11
2018-06-01T04:54:40.593Z,27.20
2018-06-01T04:55:40.613Z,27.18
2018-06-01T04:56:40.699Z,27.12
2018-06-01T04:57:40.787Z,27.13
2018-06-01T04:58:40.716Z,27.23
2018-06-01T04:59:40.857Z,27.11
2018-06-01T05:00:41.244Z,27.09
2018-06-01T05:01:40.882Z,27.15
2018-06-01T05:02:40.855Z,27.18
2018-06-01T05:03:41.004Z,27.12
2018-06-01T05:04:40.995Z,27.20
2018-06-01T05:05:40.961Z,27.20
2018-06-01T05:06:41.032Z,27.13
2018-06-01T05:07:41.379Z,27.20
2018-06-01T05:08:41.065Z,27.21
2018-06-01T05:09:41.153Z,27.18
2018-06-01T05:10:41.136Z,27.12
2018-06-01T05:11:41.280Z,27.20
2018-06-01T05:12:41.251Z,27.23
2018-06-01T05:13:41.263Z,27.16
2018-06-01T05:14:41.621Z,27.08
2018-06-01T05:15:41.449Z,27.20
2018-06-01T05:16:41.491Z,27.16
2018-06-01T05:17:41.380Z,27.11
2018-06-01T05:18:41.521Z,27.15
2018-06-01T05:19:41.446Z,27.16
2018-06-01T05:20:41.540Z,27.24
2018-06-01T05:21:41.907Z,27.24
2018-06-01T05:22:41.549Z,27.18
2018-06-01T05:23:41.641Z,27.18
2018-06-01T05:24:41.633Z,27.24
2018-06-01T05:25:41.708Z,27.21
2018-06-01T05:26:41.689Z,27.18
2018-06-01T05:27:41.726Z,27.24
2018-06-01T05:28:42.125Z,27.21
2018-06-01T05:29:41.842Z,27.24
2018-06-01T05:30:41.885Z,27.18
2018-06-01T05:31:41.860Z,27.16
2018-06-01T05:32:41.902Z,27.28
2018-06-01T05:33:42.010Z,27.21
2018-06-01T05:34:41.964Z,27.25
2018-06-01T05:35:42.355Z,27.18
2018-06-01T05:36:42.033Z,27.27
2018-06-01T05:37:42.070Z,27.25
2018-06-01T05:38:42.104Z,27.27
2018-06-01T05:39:42.176Z,27.21
2018-06-01T05:40:42.222Z,27.25
2018-06-01T05:41:42.291Z,27.25
2018-06-01T05:42:42.593Z,27.28
2018-06-01T05:43:42.327Z,27.25
2018-06-01T05:44:42.363Z,27.30
2018-06-01T05:45:42.419Z,27.27
2018-06-01T05:46:42.386Z,27.27
2018-06-01T05:47:42.417Z,27.20
2018-06-01T05:48:42.449Z,27.27
2018-06-01T05:49:42.865Z,27.31
2018-06-01T05:50:42.574Z,27.31
2018-06-01T05:51:42.556Z,27.34
2018-06-01T05:52:42.588Z,27.28
2018-06-01T05:53:42.626Z,27.27
2018-06-01T05:54:42.679Z,27.25
2018-06-01T05:55:42.744Z,27.30
2018-06-01T05:56:43.089Z,27.27
2018-06-01T05:57:42.811Z,27.30
2018-06-01T05:58:42.797Z,27.30
2018-06-01T05:59:42.957Z,27.33
2018-06-01T06:00:42.866Z,27.30
2018-06-01T06:01:42.908Z,27.30
2018-06-01T06:02:42.934Z,27.31
2018-06-01T06:03:43.322Z,27.28
2018-06-01T06:04:43.031Z,27.28
2018-06-01T06:05:43.040Z,27.31
2018-06-01T06:06:43.075Z,27.27
2018-06-01T06:07:43.106Z,27.34
2018-06-01T06:08:43.143Z,27.30
2018-06-01T06:09:43.581Z,27.33
2018-06-01T06:10:43.211Z,27.38
2018-06-01T06:11:43.250Z,27.35
2018-06-01T06:12:43.285Z,27.39
2018-06-01T06:13:43.317Z,27.43
2018-06-01T06:14:43.353Z,27.39
2018-06-01T06:15:43.688Z,27.46
2018-06-01T06:16:43.438Z,27.45
2018-06-01T06:17:43.537Z,27.39
2018-06-01T06:18:43.542Z,27.45
2018-06-01T06:19:43.600Z,27.46
2018-06-01T06:20:43.609Z,27.40
2018-06-01T06:21:43.896Z,27.40
2018-06-01T06:22:43.628Z,27.42
2018-06-01T06:23:43.719Z,27.43
2018-06-01T06:24:43.697Z,27.40
2018-06-01T06:25:43.802Z,27.45
2018-06-01T06:26:43.769Z,27.50
2018-06-01T06:27:44.110Z,27.50
2018-06-01T06:28:43.937Z,27.48
2018-06-01T06:29:43.875Z,27.45
2018-06-01T06:30:43.916Z,27.50
2018-06-01T06:31:43.944Z,27.48
2018-06-01T06:32:44.031Z,27.50
2018-06-01T06:33:44.380Z,27.48
2018-06-01T06:34:44.060Z,27.48
2018-06-01T06:35:45.589Z,27.48
2018-06-01T06:36:44.119Z,27.50
2018-06-01T06:37:44.190Z,27.52
2018-06-01T06:38:44.197Z,27.53
2018-06-01T06:39:44.578Z,27.52
2018-06-01T06:40:44.314Z,27.58
2018-06-01T06:41:44.316Z,27.58
2018-06-01T06:42:44.362Z,27.63
2018-06-01T06:43:44.366Z,27.53
2018-06-01T06:44:44.404Z,27.49
2018-06-01T06:45:44.785Z,27.55
2018-06-01T06:46:44.522Z,27.55
2018-06-01T06:47:44.562Z,27.61
2018-06-01T06:48:44.586Z,27.59
2018-06-01T06:49:44.588Z,27.62
2018-06-01T06:50:44.611Z,27.61
2018-06-01T06:51:44.947Z,27.66
2018-06-01T06:52:44.727Z,27.71
2018-06-01T06:53:44.719Z,27.63
2018-06-01T06:54:44.746Z,27.58
2018-06-01T06:55:44.881Z,27.62
2018-06-01T06:56:44.845Z,27.71
2018-06-01T06:57:45.205Z,27.69
2018-06-01T06:58:44.886Z,27.66
2018-06-01T06:59:44.932Z,27.69
2018-06-01T07:00:44.957Z,27.72
2018-06-01T07:01:45.096Z,27.62
2018-06-01T07:02:45.161Z,27.69
2018-06-01T07:03:45.416Z,27.72
2018-06-01T07:04:45.097Z,27.71
2018-06-01T07:05:45.132Z,27.69
2018-06-01T07:06:45.169Z,27.69
2018-06-01T07:07:45.202Z,27.78
2018-06-01T07:08:45.238Z,27.69
2018-06-01T07:09:45.622Z,27.78
2018-06-01T07:10:45.308Z,27.77
2018-06-01T07:11:45.346Z,27.81
2018-06-01T07:12:45.377Z,27.74
2018-06-01T07:13:45.418Z,27.80
2018-06-01T07:14:45.463Z,27.86
2018-06-01T07:15:47.842Z,27.86
2018-06-01T07:16:45.518Z,27.80
2018-06-01T07:17:45.604Z,27.81
2018-06-01T07:18:45.594Z,27.83
2018-06-01T07:19:45.693Z,27.88
2018-06-01T07:20:45.660Z,27.88
2018-06-01T07:21:45.999Z,27.87
2018-06-01T07:22:45.736Z,27.83
2018-06-01T07:23:45.765Z,27.84
2018-06-01T07:24:45.962Z,27.87
2018-06-01T07:25:45.837Z,27.86
2018-06-01T07:26:45.934Z,27.95
2018-06-01T07:27:46.284Z,27.96
2018-06-01T07:28:45.943Z,27.95
2018-06-01T07:29:45.993Z,27.91
2018-06-01T07:30:46.014Z,27.99
2018-06-01T07:31:46.048Z,27.99
2018-06-01T07:32:46.091Z,28.01
2018-06-01T07:33:46.122Z,28.08
2018-06-01T07:34:46.527Z,28.06
2018-06-01T07:35:46.198Z,28.11
2018-06-01T07:36:46.248Z,28.09
2018-06-01T07:37:46.329Z,28.11
2018-06-01T07:38:46.365Z,28.13
2018-06-01T07:39:46.384Z,28.13
2018-06-01T07:40:46.440Z,28.15
2018-06-01T07:41:46.755Z,28.17
2018-06-01T07:42:46.444Z,28.24
2018-06-01T07:43:46.535Z,28.27
2018-06-01T07:44:46.532Z,28.23
2018-06-01T07:45:46.545Z,28.15
2018-06-01T07:46:46.582Z,28.23
2018-06-01T07:47:46.616Z,28.20
2018-06-01T07:48:47.058Z,28.23
2018-06-01T07:49:46.695Z,28.21
2018-06-01T07:50:46.725Z,28.24
2018-06-01T07:51:46.763Z,28.25
2018-06-01T07:52:46.808Z,28.18
2018-06-01T07:53:46.884Z,28.23
2018-06-01T07:54:46.915Z,28.23
2018-06-01T07:55:47.259Z,28.21
2018-06-01T07:56:46.937Z,28.23
2018-06-01T07:57:46.999Z,28.21
2018-06-01T07:58:47.007Z,28.18
2018-06-01T07:59:47.045Z,28.27
2018-06-01T08:00:47.092Z,28.21
2018-06-01T08:01:47.119Z,28.23
2018-06-01T08:02:47.507Z,28.21
2018-06-01T08:03:47.197Z,28.28
2018-06-01T08:04:47.270Z,28.23
2018-06-01T08:05:47.260Z,28.20
2018-06-01T08:06:47.298Z,28.23
2018-06-01T08:07:47.378Z,28.24
2018-06-01T08:08:47.413Z,28.24
2018-06-01T08:09:47.756Z,28.21
2018-06-01T08:10:47.539Z,28.20
2018-06-01T08:11:47.477Z,28.21
2018-06-01T08:12:47.538Z,28.28
2018-06-01T08:13:47.555Z,28.24
2018-06-01T08:14:47.622Z,28.30
2018-06-01T08:15:47.673Z,28.28
2018-06-01T08:16:48.008Z,28.15
2018-06-01T08:17:47.743Z,28.24
2018-06-01T08:18:47.748Z,28.25
2018-06-01T08:19:47.763Z,28.27
2018-06-01T08:20:47.798Z,28.23
2018-06-01T08:21:47.877Z,28.30
2018-06-01T08:22:47.863Z,28.20
2018-06-01T08:23:48.253Z,28.21
2018-06-01T08:24:47.935Z,28.18
2018-06-01T08:25:47.968Z,28.24
2018-06-01T08:26:48.017Z,28.20
2018-06-01T08:27:48.040Z,28.24
2018-06-01T08:28:48.099Z,28.24
2018-06-01T08:29:48.114Z,28.24
2018-06-01T08:30:48.451Z,28.25
2018-06-01T08:31:48.225Z,28.20
2018-06-01T08:32:48.220Z,28.33
2018-06-01T08:33:48.258Z,28.23
2018-06-01T08:34:48.363Z,28.28
2018-06-01T08:35:48.336Z,28.32
2018-06-01T08:36:48.417Z,28.30
2018-06-01T08:37:48.759Z,28.28
2018-06-01T08:38:48.512Z,28.28
2018-06-01T08:39:48.598Z,28.25
2018-06-01T08:40:48.523Z,28.30
2018-06-01T08:41:48.538Z,28.30
2018-06-01T08:42:48.582Z,28.36
2018-06-01T08:43:48.636Z,28.36
2018-06-01T08:44:49.017Z,28.28
2018-06-01T08:45:48.687Z,28.27
2018-06-01T08:46:48.739Z,28.38
2018-06-01T08:47:48.765Z,28.30
2018-06-01T08:48:48.789Z,28.36
2018-06-01T08:49:48.867Z,28.33
2018-06-01T08:50:48.961Z,28.30
2018-06-01T08:51:50.247Z,28.32
2018-06-01T08:52:48.982Z,28.36
2018-06-01T08:53:49.023Z,28.28
2018-06-01T08:54:49.034Z,28.28
2018-06-01T08:55:49.064Z,28.33
2018-06-01T08:56:49.086Z,28.38
2018-06-01T08:57:49.200Z,28.38
2018-06-01T08:58:49.498Z,28.33
2018-06-01T08:59:49.230Z,28.35
2018-06-01T09:00:49.221Z,28.42
2018-06-01T09:01:49.283Z,28.33
2018-06-01T09:02:49.292Z,28.40
2018-06-01T09:03:49.326Z,28.36
2018-06-01T09:04:49.719Z,28.35
2018-06-01T09:05:49.475Z,28.39
2018-06-01T09:06:49.792Z,28.36
2018-06-01T09:07:49.481Z,28.38
2018-06-01T09:08:49.546Z,28.43
2018-06-01T09:09:49.543Z,28.33
2018-06-01T09:10:49.879Z,28.36
2018-06-01T09:11:49.623Z,28.39
2018-06-01T09:12:49.655Z,28.35
2018-06-01T09:13:49.770Z,28.35
2018-06-01T09:14:49.724Z,28.25
2018-06-01T09:15:49.770Z,28.32
2018-06-01T09:16:50.203Z,28.30
2018-06-01T09:17:49.826Z,28.39
2018-06-01T09:18:49.874Z,28.36
2018-06-01T09:19:49.903Z,28.36
2018-06-01T09:20:49.984Z,28.33
2018-06-01T09:21:49.969Z,28.33
2018-06-01T09:22:50.363Z,28.27
2018-06-01T09:23:50.039Z,28.27
2018-06-01T09:24:50.128Z,28.23
2018-06-01T09:25:50.171Z,28.21
2018-06-01T09:26:50.144Z,28.32
2018-06-01T09:27:50.240Z,28.32
2018-06-01T09:28:50.617Z,28.25
2018-06-01T09:29:50.253Z,28.21
2018-06-01T09:30:50.376Z,28.25
2018-06-01T09:31:50.331Z,28.20
2018-06-01T09:32:50.407Z,28.33
2018-06-01T09:33:50.403Z,28.24
2018-06-01T09:34:50.783Z,28.21
2018-06-01T09:35:50.465Z,28.25
2018-06-01T09:36:50.501Z,28.25
2018-06-01T09:37:50.545Z,28.17
2018-06-01T09:38:50.572Z,28.15
2018-06-01T09:39:50.610Z,28.20
2018-06-01T09:40:51.002Z,28.17
2018-06-01T09:41:50.678Z,28.18
2018-06-01T09:42:50.776Z,28.18
2018-06-01T09:43:50.746Z,28.14
2018-06-01T09:44:50.784Z,28.13
2018-06-01T09:45:50.821Z,28.15
2018-06-01T09:46:51.207Z,28.11
2018-06-01T09:47:50.943Z,28.13
2018-06-01T09:48:50.979Z,28.11
2018-06-01T09:49:51.062Z,28.08
2018-06-01T09:50:51.047Z,28.14
2018-06-01T09:51:51.033Z,28.05
2018-06-01T09:52:51.422Z,28.09
2018-06-01T09:53:51.103Z,28.01
2018-06-01T09:54:51.156Z,28.06
2018-06-01T09:55:51.223Z,28.06
2018-06-01T09:56:51.258Z,28.03
2018-06-01T09:57:51.251Z,28.02
2018-06-01T09:58:51.627Z,28.03
2018-06-01T09:59:51.312Z,27.98
2018-06-01T10:00:51.363Z,27.99
2018-06-01T10:01:51.439Z,28.02
2018-06-01T10:02:51.418Z,27.98
2018-06-01T10:03:51.558Z,28.01
2018-06-01T10:04:51.843Z,27.98
2018-06-01T10:05:51.541Z,27.99
2018-06-01T10:06:51.561Z,28.02
2018-06-01T10:07:51.678Z,27.98
2018-06-01T10:08:51.668Z,28.02
2018-06-01T10:09:51.725Z,28.01
2018-06-01T10:10:52.074Z,27.98
2018-06-01T10:11:51.795Z,27.95
2018-06-01T10:12:51.772Z,27.95
2018-06-01T10:13:51.809Z,27.88
2018-06-01T10:14:51.845Z,27.91
2018-06-01T10:15:51.932Z,27.99
2018-06-01T10:16:51.917Z,27.95
2018-06-01T10:17:52.305Z,27.93
2018-06-01T10:18:51.981Z,27.87
2018-06-01T10:19:52.022Z,28.02
2018-06-01T10:20:52.075Z,27.90
2018-06-01T10:21:52.088Z,27.91
2018-06-01T10:22:52.128Z,27.95
2018-06-01T10:23:52.161Z,27.93
2018-06-01T10:24:52.503Z,27.88
2018-06-01T10:25:52.303Z,27.88
2018-06-01T10:26:52.265Z,27.93
2018-06-01T10:27:52.307Z,27.88
2018-06-01T10:28:52.348Z,27.91
2018-06-01T10:29:52.380Z,27.91
2018-06-01T10:30:52.461Z,27.84
2018-06-01T10:31:52.790Z,27.88
2018-06-01T10:32:52.538Z,27.90
2018-06-01T10:33:52.514Z,27.86
2018-06-01T10:34:52.585Z,27.88
2018-06-01T10:35:52.633Z,27.80
2018-06-01T10:36:52.624Z,27.81
2018-06-01T10:37:52.653Z,27.91
2018-06-01T10:38:53.041Z,27.87
2018-06-01T10:39:52.857Z,27.90
2018-06-01T10:40:52.760Z,27.86
2018-06-01T10:41:52.795Z,27.80
2018-06-01T10:42:52.832Z,27.87
2018-06-01T10:43:52.913Z,27.88
2018-06-01T10:44:52.905Z,27.86
2018-06-01T10:45:53.288Z,27.93
2018-06-01T10:46:53.018Z,27.86
2018-06-01T10:47:53.004Z,27.90
2018-06-01T10:48:53.038Z,27.87
2018-06-01T10:49:53.084Z,27.88
2018-06-01T10:50:53.165Z,27.86
2018-06-01T10:51:53.153Z,27.84
2018-06-01T10:52:53.484Z,27.87
2018-06-01T10:53:53.263Z,27.84
2018-06-01T10:54:53.334Z,27.86
2018-06-01T10:55:53.337Z,27.90
2018-06-01T10:56:53.327Z,27.88
2018-06-01T10:57:53.356Z,27.84
2018-06-01T10:58:53.392Z,27.86
2018-06-01T10:59:53.775Z,27.88
2018-06-01T11:00:53.463Z,27.91
2018-06-01T11:01:53.499Z,27.84
2018-06-01T11:02:53.588Z,27.90
2018-06-01T11:03:53.585Z,27.87
2018-06-01T11:04:53.604Z,27.88
2018-06-01T11:05:53.651Z,27.88
2018-06-01T11:06:54.022Z,27.88
2018-06-01T11:07:53.757Z,27.90
2018-06-01T11:08:53.791Z,27.88
2018-06-01T11:09:53.851Z,27.83
2018-06-01T11:10:53.890Z,27.81
2018-06-01T11:11:53.848Z,27.86
2018-06-01T11:12:53.890Z,27.84
2018-06-01T11:13:54.274Z,27.83
2018-06-01T11:14:54.001Z,27.87
2018-06-01T11:15:54.036Z,27.88
2018-06-01T11:16:54.023Z,27.86
2018-06-01T11:17:54.098Z,27.84
2018-06-01T11:18:54.129Z,27.84
2018-06-01T11:19:54.128Z,27.90
2018-06-01T11:20:54.523Z,27.93
2018-06-01T11:21:54.252Z,27.90
2018-06-01T11:22:54.309Z,27.83
2018-06-01T11:23:54.340Z,27.86
2018-06-01T11:24:54.373Z,27.90
2018-06-01T11:25:54.391Z,27.87
2018-06-01T11:26:54.417Z,27.90
2018-06-01T11:27:54.780Z,27.83
2018-06-01T11:28:54.504Z,27.93
2018-06-01T11:29:54.478Z,27.91
2018-06-01T11:30:54.616Z,27.93
2018-06-01T11:31:54.547Z,27.88
2018-06-01T11:32:54.612Z,27.86
2018-06-01T11:33:54.624Z,27.96
2018-06-01T11:34:55.650Z,27.84
2018-06-01T11:35:54.739Z,27.87
2018-06-01T11:36:54.731Z,27.83
2018-06-01T11:37:54.846Z,27.84
2018-06-01T11:38:54.817Z,27.93
2018-06-01T11:39:54.830Z,27.88
2018-06-01T11:40:54.864Z,27.86
2018-06-01T11:41:55.251Z,27.81
2018-06-01T11:42:54.961Z,27.83
2018-06-01T11:43:54.972Z,27.87
2018-06-01T11:44:55.006Z,27.83
2018-06-01T11:45:55.096Z,27.81
2018-06-01T11:46:55.077Z,27.83
2018-06-01T11:47:55.473Z,27.81
2018-06-01T11:48:55.148Z,27.81
2018-06-01T11:49:55.238Z,27.86
2018-06-01T11:50:55.220Z,27.81
2018-06-01T11:51:55.248Z,27.87
2018-06-01T11:52:55.456Z,27.87
2018-06-01T11:53:55.671Z,27.86
2018-06-01T11:54:55.366Z,27.81
2018-06-01T11:55:55.392Z,27.84
2018-06-01T11:56:55.525Z,27.87
2018-06-01T11:57:55.461Z,27.84
2018-06-01T11:58:55.498Z,27.83
2018-06-01T11:59:55.885Z,27.83
2018-06-01T12:00:55.599Z,27.83
2018-06-01T12:01:55.622Z,27.87
2018-06-01T12:02:55.696Z,27.86
2018-06-01T12:03:55.694Z,27.90
2018-06-01T12:04:55.714Z,27.83
2018-06-01T12:05:56.102Z,27.90
2018-06-01T12:06:55.775Z,27.80
2018-06-01T12:07:55.829Z,27.86
2018-06-01T12:08:55.849Z,27.81
2018-06-01T12:09:55.883Z,27.86
2018-06-01T12:10:55.945Z,27.77
2018-06-01T12:11:56.313Z,27.86
2018-06-01T12:12:55.986Z,27.77
2018-06-01T12:13:56.073Z,27.87
2018-06-01T12:14:56.058Z,27.86
2018-06-01T12:15:56.099Z,27.86
2018-06-01T12:16:56.133Z,27.86
2018-06-01T12:17:56.515Z,27.84
2018-06-01T12:18:56.201Z,27.80
2018-06-01T12:19:56.285Z,27.86
2018-06-01T12:20:56.273Z,27.84
2018-06-01T12:21:56.310Z,27.83
2018-06-01T12:22:56.346Z,27.84
2018-06-01T12:23:56.724Z,27.78
2018-06-01T12:24:56.467Z,27.76
2018-06-01T12:25:56.499Z,27.83
2018-06-01T12:26:56.476Z,27.76
2018-06-01T12:27:56.511Z,27.78
2018-06-01T12:28:56.546Z,27.77
2018-06-01T12:29:56.662Z,27.78
2018-06-01T12:30:56.639Z,27.80
2018-06-01T12:31:56.649Z,27.80
2018-06-01T12:32:56.686Z,27.76
2018-06-01T12:33:56.736Z,27.78
2018-06-01T12:34:56.757Z,27.74
2018-06-01T12:35:57.177Z,27.71
2018-06-01T12:36:56.840Z,27.77
2018-06-01T12:37:56.916Z,27.80
2018-06-01T12:38:56.951Z,27.74
2018-06-01T12:39:57.017Z,27.68
2018-06-01T12:40:57.057Z,27.63
2018-06-01T12:41:57.355Z,27.74
2018-06-01T12:42:57.086Z,27.72
2018-06-01T12:43:57.132Z,27.72
2018-06-01T12:44:57.104Z,27.71
2018-06-01T12:45:57.140Z,27.68
2018-06-01T12:46:57.175Z,27.74
2018-06-01T12:47:57.564Z,27.66
2018-06-01T12:48:57.247Z,27.71
2018-06-01T12:49:57.286Z,27.71
2018-06-01T12:50:57.312Z,27.72
2018-06-01T12:51:57.348Z,27.69
2018-06-01T12:52:57.391Z,27.68